sensor_id;sensor_type;location;lat;lon;timestamp;P1;durP1;ratioP1;P2;durP2;ratioP2
70406;SDS011;57821;52.202;0.154;2023-04-25T00:01:48;17.13;;;4.28;;
70406;SDS011;57821;52.202;0.154;2023-04-25T00:04:15;19.40;;;3.95;;
70406;SDS011;57821;52.202;0.154;2023-04-25T00:06:42;14.48;;;3.00;;
70406;SDS011;57821;52.202;0.154;2023-04-25T00:09:09;11.57;;;2.78;;
70406;SDS011;57821;52.202;0.154;2023-04-25T00:11:36;13.57;;;3.33;;
70406;SDS011;57821;52.202;0.154;2023-04-25T00:14:03;12.68;;;2.55;;
70406;SDS011;57821;52.202;0.154;2023-04-25T00:16:31;9.85;;;2.83;;
70406;SDS011;57821;52.202;0.154;2023-04-25T00:18:57;11.40;;;3.60;;
70406;SDS011;57821;52.202;0.154;2023-04-25T00:21:24;16.38;;;3.08;;
70406;SDS011;57821;52.202;0.154;2023-04-25T00:23:52;14.73;;;3.00;;
70406;SDS011;57821;52.202;0.154;2023-04-25T00:26:19;14.73;;;2.65;;
70406;SDS011;57821;52.202;0.154;2023-04-25T00:28:45;19.15;;;2.97;;
70406;SDS011;57821;52.202;0.154;2023-04-25T00:31:12;11.05;;;2.50;;
70406;SDS011;57821;52.202;0.154;2023-04-25T00:33:39;14.50;;;2.33;;
70406;SDS011;57821;52.202;0.154;2023-04-25T00:36:06;12.93;;;2.85;;
70406;SDS011;57821;52.202;0.154;2023-04-25T00:38:33;12.02;;;2.42;;
70406;SDS011;57821;52.202;0.154;2023-04-25T00:41:00;21.15;;;2.63;;
70406;SDS011;57821;52.202;0.154;2023-04-25T00:43:27;15.32;;;2.83;;
70406;SDS011;57821;52.202;0.154;2023-04-25T00:45:54;19.42;;;2.70;;
70406;SDS011;57821;52.202;0.154;2023-04-25T00:48:23;19.38;;;3.05;;
70406;SDS011;57821;52.202;0.154;2023-04-25T00:50:53;13.40;;;2.85;;
70406;SDS011;57821;52.202;0.154;2023-04-25T00:53:25;14.45;;;2.72;;
70406;SDS011;57821;52.202;0.154;2023-04-25T00:55:53;16.95;;;2.50;;
70406;SDS011;57821;52.202;0.154;2023-04-25T00:58:21;14.40;;;2.72;;
70406;SDS011;57821;52.202;0.154;2023-04-25T01:00:49;16.33;;;2.83;;
70406;SDS011;57821;52.202;0.154;2023-04-25T01:03:17;12.68;;;3.03;;
70406;SDS011;57821;52.202;0.154;2023-04-25T01:05:44;17.77;;;3.42;;
70406;SDS011;57821;52.202;0.154;2023-04-25T01:08:12;11.27;;;2.47;;
70406;SDS011;57821;52.202;0.154;2023-04-25T01:10:39;11.15;;;2.75;;
70406;SDS011;57821;52.202;0.154;2023-04-25T01:13:07;10.77;;;2.40;;
70406;SDS011;57821;52.202;0.154;2023-04-25T01:15:34;13.77;;;2.47;;
70406;SDS011;57821;52.202;0.154;2023-04-25T01:18:00;20.23;;;3.83;;
70406;SDS011;57821;52.202;0.154;2023-04-25T01:20:27;18.08;;;3.53;;
70406;SDS011;57821;52.202;0.154;2023-04-25T01:22:55;17.02;;;2.90;;
70406;SDS011;57821;52.202;0.154;2023-04-25T01:25:22;16.52;;;2.95;;
70406;SDS011;57821;52.202;0.154;2023-04-25T01:27:50;17.85;;;2.92;;
70406;SDS011;57821;52.202;0.154;2023-04-25T01:30:16;11.65;;;2.85;;
70406;SDS011;57821;52.202;0.154;2023-04-25T01:32:43;18.60;;;2.90;;
70406;SDS011;57821;52.202;0.154;2023-04-25T01:35:11;10.48;;;2.33;;
70406;SDS011;57821;52.202;0.154;2023-04-25T01:37:41;18.58;;;3.25;;
70406;SDS011;57821;52.202;0.154;2023-04-25T01:40:10;13.68;;;3.00;;
70406;SDS011;57821;52.202;0.154;2023-04-25T01:42:39;13.77;;;3.15;;
70406;SDS011;57821;52.202;0.154;2023-04-25T01:45:07;14.68;;;3.20;;
70406;SDS011;57821;52.202;0.154;2023-04-25T01:47:35;16.52;;;2.85;;
70406;SDS011;57821;52.202;0.154;2023-04-25T01:50:02;16.90;;;3.45;;
70406;SDS011;57821;52.202;0.154;2023-04-25T01:52:31;11.30;;;2.63;;
70406;SDS011;57821;52.202;0.154;2023-04-25T01:54:59;12.00;;;2.60;;
70406;SDS011;57821;52.202;0.154;2023-04-25T01:57:29;13.52;;;3.88;;
70406;SDS011;57821;52.202;0.154;2023-04-25T02:00:00;14.95;;;3.03;;
70406;SDS011;57821;52.202;0.154;2023-04-25T02:02:40;13.02;;;3.10;;
70406;SDS011;57821;52.202;0.154;2023-04-25T02:05:19;12.13;;;3.95;;
70406;SDS011;57821;52.202;0.154;2023-04-25T02:07:46;13.30;;;3.17;;
70406;SDS011;57821;52.202;0.154;2023-04-25T02:10:13;9.38;;;2.88;;
70406;SDS011;57821;52.202;0.154;2023-04-25T02:12:59;15.45;;;3.85;;
70406;SDS011;57821;52.202;0.154;2023-04-25T02:15:42;20.15;;;4.40;;
70406;SDS011;57821;52.202;0.154;2023-04-25T02:18:17;16.95;;;4.07;;
70406;SDS011;57821;52.202;0.154;2023-04-25T02:20:44;14.25;;;3.22;;
70406;SDS011;57821;52.202;0.154;2023-04-25T02:23:11;17.50;;;4.45;;
70406;SDS011;57821;52.202;0.154;2023-04-25T02:25:38;15.10;;;4.10;;
70406;SDS011;57821;52.202;0.154;2023-04-25T02:28:05;15.20;;;3.38;;
70406;SDS011;57821;52.202;0.154;2023-04-25T02:30:32;12.20;;;3.20;;
70406;SDS011;57821;52.202;0.154;2023-04-25T02:32:58;15.05;;;3.45;;
70406;SDS011;57821;52.202;0.154;2023-04-25T02:35:25;19.70;;;4.07;;
70406;SDS011;57821;52.202;0.154;2023-04-25T02:37:54;15.88;;;3.15;;
70406;SDS011;57821;52.202;0.154;2023-04-25T02:40:20;19.10;;;3.47;;
70406;SDS011;57821;52.202;0.154;2023-04-25T02:42:47;15.35;;;3.63;;
70406;SDS011;57821;52.202;0.154;2023-04-25T02:45:14;14.30;;;3.80;;
70406;SDS011;57821;52.202;0.154;2023-04-25T02:47:40;9.90;;;3.38;;
70406;SDS011;57821;52.202;0.154;2023-04-25T02:50:07;13.88;;;4.40;;
70406;SDS011;57821;52.202;0.154;2023-04-25T02:52:35;11.90;;;3.53;;
70406;SDS011;57821;52.202;0.154;2023-04-25T02:55:09;14.35;;;3.72;;
70406;SDS011;57821;52.202;0.154;2023-04-25T02:57:37;19.83;;;3.83;;
70406;SDS011;57821;52.202;0.154;2023-04-25T03:00:04;13.65;;;3.35;;
70406;SDS011;57821;52.202;0.154;2023-04-25T03:02:31;15.38;;;3.70;;
70406;SDS011;57821;52.202;0.154;2023-04-25T03:04:58;18.23;;;4.18;;
70406;SDS011;57821;52.202;0.154;2023-04-25T03:07:26;17.50;;;4.05;;
70406;SDS011;57821;52.202;0.154;2023-04-25T03:09:52;13.82;;;3.50;;
70406;SDS011;57821;52.202;0.154;2023-04-25T03:12:19;15.93;;;3.72;;
70406;SDS011;57821;52.202;0.154;2023-04-25T03:14:45;20.80;;;5.05;;
70406;SDS011;57821;52.202;0.154;2023-04-25T03:17:14;17.65;;;4.30;;
70406;SDS011;57821;52.202;0.154;2023-04-25T03:19:40;17.60;;;4.47;;
70406;SDS011;57821;52.202;0.154;2023-04-25T03:22:07;16.38;;;4.25;;
70406;SDS011;57821;52.202;0.154;2023-04-25T03:24:34;16.92;;;4.65;;
70406;SDS011;57821;52.202;0.154;2023-04-25T03:27:01;18.02;;;4.13;;
70406;SDS011;57821;52.202;0.154;2023-04-25T03:29:27;18.23;;;4.93;;
70406;SDS011;57821;52.202;0.154;2023-04-25T03:31:55;18.23;;;4.25;;
70406;SDS011;57821;52.202;0.154;2023-04-25T03:34:22;21.58;;;4.85;;
70406;SDS011;57821;52.202;0.154;2023-04-25T03:36:49;17.23;;;5.10;;
70406;SDS011;57821;52.202;0.154;2023-04-25T03:39:15;15.73;;;3.80;;
70406;SDS011;57821;52.202;0.154;2023-04-25T03:41:47;11.75;;;4.07;;
70406;SDS011;57821;52.202;0.154;2023-04-25T03:44:15;19.27;;;4.78;;
70406;SDS011;57821;52.202;0.154;2023-04-25T03:46:42;16.95;;;3.65;;
70406;SDS011;57821;52.202;0.154;2023-04-25T03:49:09;16.67;;;5.15;;
70406;SDS011;57821;52.202;0.154;2023-04-25T03:51:59;17.88;;;4.10;;
70406;SDS011;57821;52.202;0.154;2023-04-25T03:54:27;19.58;;;4.03;;
70406;SDS011;57821;52.202;0.154;2023-04-25T03:57:26;16.92;;;5.10;;
70406;SDS011;57821;52.202;0.154;2023-04-25T03:59:53;22.33;;;4.72;;
70406;SDS011;57821;52.202;0.154;2023-04-25T04:02:20;12.35;;;3.47;;
70406;SDS011;57821;52.202;0.154;2023-04-25T04:04:47;13.32;;;3.50;;
70406;SDS011;57821;52.202;0.154;2023-04-25T04:07:16;19.08;;;4.30;;
70406;SDS011;57821;52.202;0.154;2023-04-25T04:09:45;22.33;;;4.10;;
70406;SDS011;57821;52.202;0.154;2023-04-25T04:12:18;17.52;;;4.45;;
70406;SDS011;57821;52.202;0.154;2023-04-25T04:14:45;19.95;;;4.80;;
70406;SDS011;57821;52.202;0.154;2023-04-25T04:17:12;13.65;;;4.05;;
70406;SDS011;57821;52.202;0.154;2023-04-25T04:19:39;14.50;;;3.85;;
70406;SDS011;57821;52.202;0.154;2023-04-25T04:22:11;14.10;;;4.20;;
70406;SDS011;57821;52.202;0.154;2023-04-25T04:24:39;15.57;;;4.22;;
70406;SDS011;57821;52.202;0.154;2023-04-25T04:27:07;25.33;;;5.30;;
70406;SDS011;57821;52.202;0.154;2023-04-25T04:29:46;21.27;;;4.43;;
70406;SDS011;57821;52.202;0.154;2023-04-25T04:32:18;16.73;;;4.50;;
70406;SDS011;57821;52.202;0.154;2023-04-25T04:34:46;15.80;;;4.00;;
70406;SDS011;57821;52.202;0.154;2023-04-25T04:37:14;17.52;;;3.63;;
70406;SDS011;57821;52.202;0.154;2023-04-25T04:39:42;20.48;;;4.22;;
70406;SDS011;57821;52.202;0.154;2023-04-25T04:42:25;20.38;;;4.38;;
70406;SDS011;57821;52.202;0.154;2023-04-25T04:45:01;14.20;;;4.00;;
70406;SDS011;57821;52.202;0.154;2023-04-25T04:48:06;15.02;;;3.95;;
70406;SDS011;57821;52.202;0.154;2023-04-25T04:50:56;17.88;;;3.55;;
70406;SDS011;57821;52.202;0.154;2023-04-25T04:53:48;16.90;;;3.50;;
70406;SDS011;57821;52.202;0.154;2023-04-25T04:56:15;15.25;;;3.95;;
70406;SDS011;57821;52.202;0.154;2023-04-25T04:59:01;18.40;;;4.00;;
70406;SDS011;57821;52.202;0.154;2023-04-25T05:01:47;12.65;;;2.88;;
70406;SDS011;57821;52.202;0.154;2023-04-25T05:04:21;15.02;;;3.83;;
70406;SDS011;57821;52.202;0.154;2023-04-25T05:06:51;12.25;;;3.72;;
70406;SDS011;57821;52.202;0.154;2023-04-25T05:09:38;13.55;;;3.10;;
70406;SDS011;57821;52.202;0.154;2023-04-25T05:12:10;9.20;;;2.65;;
70406;SDS011;57821;52.202;0.154;2023-04-25T05:14:56;18.20;;;4.13;;
70406;SDS011;57821;52.202;0.154;2023-04-25T05:17:41;15.77;;;3.70;;
70406;SDS011;57821;52.202;0.154;2023-04-25T05:20:23;12.75;;;3.40;;
70406;SDS011;57821;52.202;0.154;2023-04-25T05:22:53;14.57;;;3.75;;
70406;SDS011;57821;52.202;0.154;2023-04-25T05:25:52;12.35;;;3.97;;
70406;SDS011;57821;52.202;0.154;2023-04-25T05:28:57;12.68;;;3.33;;
70406;SDS011;57821;52.202;0.154;2023-04-25T05:31:55;18.15;;;4.43;;
70406;SDS011;57821;52.202;0.154;2023-04-25T05:34:23;14.40;;;3.55;;
70406;SDS011;57821;52.202;0.154;2023-04-25T05:36:59;16.70;;;4.15;;
70406;SDS011;57821;52.202;0.154;2023-04-25T05:39:26;14.25;;;4.18;;
70406;SDS011;57821;52.202;0.154;2023-04-25T05:42:23;13.45;;;3.63;;
70406;SDS011;57821;52.202;0.154;2023-04-25T05:45:08;20.63;;;4.82;;
70406;SDS011;57821;52.202;0.154;2023-04-25T05:48:04;16.77;;;3.85;;
70406;SDS011;57821;52.202;0.154;2023-04-25T05:50:58;17.88;;;4.70;;
70406;SDS011;57821;52.202;0.154;2023-04-25T05:53:45;15.85;;;4.38;;
70406;SDS011;57821;52.202;0.154;2023-04-25T05:56:13;15.30;;;4.13;;
70406;SDS011;57821;52.202;0.154;2023-04-25T05:58:40;14.32;;;4.95;;
70406;SDS011;57821;52.202;0.154;2023-04-25T06:01:09;22.05;;;3.97;;
70406;SDS011;57821;52.202;0.154;2023-04-25T06:03:37;20.20;;;4.45;;
70406;SDS011;57821;52.202;0.154;2023-04-25T06:06:04;12.13;;;3.08;;
70406;SDS011;57821;52.202;0.154;2023-04-25T06:08:31;11.93;;;3.05;;
70406;SDS011;57821;52.202;0.154;2023-04-25T06:10:58;14.32;;;3.08;;
70406;SDS011;57821;52.202;0.154;2023-04-25T06:13:24;18.33;;;3.78;;
70406;SDS011;57821;52.202;0.154;2023-04-25T06:15:51;14.80;;;3.83;;
70406;SDS011;57821;52.202;0.154;2023-04-25T06:18:18;17.95;;;3.38;;
70406;SDS011;57821;52.202;0.154;2023-04-25T06:20:45;19.35;;;4.53;;
70406;SDS011;57821;52.202;0.154;2023-04-25T06:23:12;15.00;;;3.13;;
70406;SDS011;57821;52.202;0.154;2023-04-25T06:25:49;14.50;;;3.40;;
70406;SDS011;57821;52.202;0.154;2023-04-25T06:28:22;14.77;;;3.33;;
70406;SDS011;57821;52.202;0.154;2023-04-25T06:30:49;13.80;;;3.17;;
70406;SDS011;57821;52.202;0.154;2023-04-25T06:33:18;17.75;;;3.53;;
70406;SDS011;57821;52.202;0.154;2023-04-25T06:35:44;15.85;;;3.35;;
70406;SDS011;57821;52.202;0.154;2023-04-25T06:38:13;12.95;;;4.03;;
70406;SDS011;57821;52.202;0.154;2023-04-25T06:40:43;12.80;;;3.67;;
70406;SDS011;57821;52.202;0.154;2023-04-25T06:43:11;12.98;;;3.33;;
70406;SDS011;57821;52.202;0.154;2023-04-25T06:45:58;13.75;;;3.85;;
70406;SDS011;57821;52.202;0.154;2023-04-25T06:48:28;11.80;;;3.17;;
70406;SDS011;57821;52.202;0.154;2023-04-25T06:50:54;15.35;;;3.33;;
70406;SDS011;57821;52.202;0.154;2023-04-25T06:53:22;15.07;;;2.78;;
70406;SDS011;57821;52.202;0.154;2023-04-25T06:55:54;19.13;;;3.08;;
70406;SDS011;57821;52.202;0.154;2023-04-25T06:58:22;13.40;;;3.65;;
70406;SDS011;57821;52.202;0.154;2023-04-25T07:01:05;12.93;;;3.55;;
70406;SDS011;57821;52.202;0.154;2023-04-25T07:03:31;14.23;;;2.92;;
70406;SDS011;57821;52.202;0.154;2023-04-25T07:06:03;14.52;;;2.92;;
70406;SDS011;57821;52.202;0.154;2023-04-25T07:08:30;19.48;;;3.80;;
70406;SDS011;57821;52.202;0.154;2023-04-25T07:10:57;15.05;;;3.38;;
70406;SDS011;57821;52.202;0.154;2023-04-25T07:13:24;13.52;;;3.63;;
70406;SDS011;57821;52.202;0.154;2023-04-25T07:15:50;14.80;;;3.15;;
70406;SDS011;57821;52.202;0.154;2023-04-25T07:18:19;13.93;;;3.00;;
70406;SDS011;57821;52.202;0.154;2023-04-25T07:20:46;11.13;;;2.78;;
70406;SDS011;57821;52.202;0.154;2023-04-25T07:23:13;8.45;;;2.75;;
70406;SDS011;57821;52.202;0.154;2023-04-25T07:25:40;16.42;;;3.05;;
70406;SDS011;57821;52.202;0.154;2023-04-25T07:28:07;13.20;;;3.63;;
70406;SDS011;57821;52.202;0.154;2023-04-25T07:30:35;16.50;;;2.83;;
70406;SDS011;57821;52.202;0.154;2023-04-25T07:33:02;11.02;;;2.50;;
70406;SDS011;57821;52.202;0.154;2023-04-25T07:35:29;16.02;;;3.03;;
70406;SDS011;57821;52.202;0.154;2023-04-25T07:37:56;11.73;;;2.95;;
70406;SDS011;57821;52.202;0.154;2023-04-25T07:40:23;14.35;;;3.03;;
70406;SDS011;57821;52.202;0.154;2023-04-25T07:42:55;16.70;;;3.10;;
70406;SDS011;57821;52.202;0.154;2023-04-25T07:45:32;13.70;;;3.17;;
70406;SDS011;57821;52.202;0.154;2023-04-25T07:47:59;11.38;;;2.65;;
70406;SDS011;57821;52.202;0.154;2023-04-25T07:50:27;11.13;;;2.58;;
70406;SDS011;57821;52.202;0.154;2023-04-25T07:52:54;10.85;;;2.60;;
70406;SDS011;57821;52.202;0.154;2023-04-25T07:55:29;12.25;;;2.95;;
70406;SDS011;57821;52.202;0.154;2023-04-25T07:58:02;14.15;;;2.58;;
70406;SDS011;57821;52.202;0.154;2023-04-25T08:00:30;9.93;;;2.15;;
70406;SDS011;57821;52.202;0.154;2023-04-25T08:03:17;9.00;;;1.95;;
70406;SDS011;57821;52.202;0.154;2023-04-25T08:05:45;10.98;;;2.10;;
70406;SDS011;57821;52.202;0.154;2023-04-25T08:08:13;9.55;;;1.98;;
70406;SDS011;57821;52.202;0.154;2023-04-25T08:10:40;10.90;;;1.80;;
70406;SDS011;57821;52.202;0.154;2023-04-25T08:13:08;8.48;;;1.88;;
70406;SDS011;57821;52.202;0.154;2023-04-25T08:15:35;10.98;;;2.10;;
70406;SDS011;57821;52.202;0.154;2023-04-25T08:18:02;20.50;;;2.40;;
70406;SDS011;57821;52.202;0.154;2023-04-25T08:20:30;9.68;;;2.63;;
70406;SDS011;57821;52.202;0.154;2023-04-25T08:22:58;8.55;;;2.30;;
70406;SDS011;57821;52.202;0.154;2023-04-25T08:25:38;8.48;;;1.60;;
70406;SDS011;57821;52.202;0.154;2023-04-25T08:28:06;13.20;;;2.50;;
70406;SDS011;57821;52.202;0.154;2023-04-25T08:30:33;11.68;;;2.25;;
70406;SDS011;57821;52.202;0.154;2023-04-25T08:32:59;14.57;;;2.72;;
70406;SDS011;57821;52.202;0.154;2023-04-25T08:35:55;7.63;;;2.03;;
70406;SDS011;57821;52.202;0.154;2023-04-25T08:38:24;10.57;;;2.20;;
70406;SDS011;57821;52.202;0.154;2023-04-25T08:40:50;10.40;;;2.10;;
70406;SDS011;57821;52.202;0.154;2023-04-25T08:43:19;12.80;;;2.08;;
70406;SDS011;57821;52.202;0.154;2023-04-25T08:45:46;9.48;;;2.20;;
70406;SDS011;57821;52.202;0.154;2023-04-25T08:48:23;14.20;;;2.08;;
70406;SDS011;57821;52.202;0.154;2023-04-25T08:50:51;18.42;;;3.60;;
70406;SDS011;57821;52.202;0.154;2023-04-25T08:53:26;13.13;;;2.88;;
70406;SDS011;57821;52.202;0.154;2023-04-25T08:55:59;11.60;;;1.95;;
70406;SDS011;57821;52.202;0.154;2023-04-25T08:58:27;11.13;;;2.35;;
70406;SDS011;57821;52.202;0.154;2023-04-25T09:00:54;10.85;;;1.88;;
70406;SDS011;57821;52.202;0.154;2023-04-25T09:03:24;16.15;;;2.58;;
70406;SDS011;57821;52.202;0.154;2023-04-25T09:05:52;10.60;;;1.95;;
70406;SDS011;57821;52.202;0.154;2023-04-25T09:08:19;11.90;;;2.30;;
70406;SDS011;57821;52.202;0.154;2023-04-25T09:10:47;12.68;;;2.25;;
70406;SDS011;57821;52.202;0.154;2023-04-25T09:13:14;13.88;;;2.53;;
70406;SDS011;57821;52.202;0.154;2023-04-25T09:16:07;11.43;;;1.52;;
70406;SDS011;57821;52.202;0.154;2023-04-25T09:22:04;8.05;;;2.03;;
70406;SDS011;57821;52.202;0.154;2023-04-25T09:24:37;5.95;;;1.77;;
70406;SDS011;57821;52.202;0.154;2023-04-25T09:27:13;9.88;;;1.98;;
70406;SDS011;57821;52.202;0.154;2023-04-25T09:34:49;9.15;;;1.63;;
70406;SDS011;57821;52.202;0.154;2023-04-25T09:37:29;8.55;;;1.50;;
70406;SDS011;57821;52.202;0.154;2023-04-25T09:40:15;9.27;;;1.60;;
70406;SDS011;57821;52.202;0.154;2023-04-25T09:43:02;4.97;;;1.20;;
70406;SDS011;57821;52.202;0.154;2023-04-25T09:45:40;8.40;;;1.70;;
70406;SDS011;57821;52.202;0.154;2023-04-25T09:48:07;5.07;;;1.48;;
70406;SDS011;57821;52.202;0.154;2023-04-25T09:50:41;10.57;;;1.67;;
70406;SDS011;57821;52.202;0.154;2023-04-25T09:53:09;8.20;;;1.45;;
70406;SDS011;57821;52.202;0.154;2023-04-25T09:56:03;10.02;;;1.65;;
70406;SDS011;57821;52.202;0.154;2023-04-25T09:58:32;10.20;;;1.58;;
70406;SDS011;57821;52.202;0.154;2023-04-25T10:01:00;7.95;;;1.60;;
70406;SDS011;57821;52.202;0.154;2023-04-25T10:03:38;7.53;;;1.27;;
70406;SDS011;57821;52.202;0.154;2023-04-25T10:06:18;5.13;;;1.02;;
70406;SDS011;57821;52.202;0.154;2023-04-25T10:08:49;9.48;;;1.95;;
70406;SDS011;57821;52.202;0.154;2023-04-25T10:11:17;8.15;;;1.75;;
70406;SDS011;57821;52.202;0.154;2023-04-25T10:13:44;6.93;;;1.80;;
70406;SDS011;57821;52.202;0.154;2023-04-25T10:16:11;7.45;;;1.27;;
70406;SDS011;57821;52.202;0.154;2023-04-25T10:18:39;12.52;;;1.70;;
70406;SDS011;57821;52.202;0.154;2023-04-25T10:21:05;9.43;;;1.20;;
70406;SDS011;57821;52.202;0.154;2023-04-25T10:23:33;5.25;;;1.10;;
70406;SDS011;57821;52.202;0.154;2023-04-25T10:26:00;4.78;;;0.95;;
70406;SDS011;57821;52.202;0.154;2023-04-25T10:28:28;8.45;;;1.40;;
70406;SDS011;57821;52.202;0.154;2023-04-25T10:33:34;8.73;;;1.70;;
70406;SDS011;57821;52.202;0.154;2023-04-25T10:36:20;6.20;;;1.63;;
70406;SDS011;57821;52.202;0.154;2023-04-25T10:38:48;7.22;;;2.00;;
70406;SDS011;57821;52.202;0.154;2023-04-25T10:41:19;7.40;;;1.38;;
70406;SDS011;57821;52.202;0.154;2023-04-25T10:43:47;6.40;;;1.42;;
70406;SDS011;57821;52.202;0.154;2023-04-25T10:46:15;5.90;;;1.20;;
70406;SDS011;57821;52.202;0.154;2023-04-25T10:48:52;9.57;;;1.50;;
70406;SDS011;57821;52.202;0.154;2023-04-25T10:51:29;7.68;;;1.38;;
70406;SDS011;57821;52.202;0.154;2023-04-25T10:54:09;8.65;;;2.15;;
70406;SDS011;57821;52.202;0.154;2023-04-25T10:56:38;6.35;;;1.25;;
70406;SDS011;57821;52.202;0.154;2023-04-25T10:59:14;5.15;;;1.63;;
70406;SDS011;57821;52.202;0.154;2023-04-25T11:01:43;8.30;;;1.70;;
70406;SDS011;57821;52.202;0.154;2023-04-25T11:09:33;5.80;;;1.30;;
70406;SDS011;57821;52.202;0.154;2023-04-25T11:12:00;7.03;;;1.65;;
70406;SDS011;57821;52.202;0.154;2023-04-25T11:14:27;5.75;;;1.30;;
70406;SDS011;57821;52.202;0.154;2023-04-25T11:16:54;8.13;;;1.40;;
70406;SDS011;57821;52.202;0.154;2023-04-25T11:19:25;7.95;;;1.55;;
70406;SDS011;57821;52.202;0.154;2023-04-25T11:21:56;7.68;;;1.33;;
70406;SDS011;57821;52.202;0.154;2023-04-25T11:24:33;6.25;;;1.20;;
70406;SDS011;57821;52.202;0.154;2023-04-25T11:27:01;8.65;;;1.52;;
70406;SDS011;57821;52.202;0.154;2023-04-25T11:29:31;8.57;;;1.60;;
70406;SDS011;57821;52.202;0.154;2023-04-25T11:31:59;6.83;;;1.60;;
70406;SDS011;57821;52.202;0.154;2023-04-25T11:34:27;5.07;;;1.40;;
70406;SDS011;57821;52.202;0.154;2023-04-25T11:36:55;6.47;;;1.70;;
70406;SDS011;57821;52.202;0.154;2023-04-25T11:39:21;7.68;;;1.35;;
70406;SDS011;57821;52.202;0.154;2023-04-25T11:41:50;5.78;;;1.30;;
70406;SDS011;57821;52.202;0.154;2023-04-25T11:44:17;11.43;;;1.40;;
70406;SDS011;57821;52.202;0.154;2023-04-25T11:46:45;6.65;;;1.13;;
70406;SDS011;57821;52.202;0.154;2023-04-25T11:49:12;7.72;;;1.40;;
70406;SDS011;57821;52.202;0.154;2023-04-25T11:51:42;5.45;;;1.13;;
70406;SDS011;57821;52.202;0.154;2023-04-25T11:54:10;7.93;;;1.50;;
70406;SDS011;57821;52.202;0.154;2023-04-25T11:56:40;7.20;;;1.60;;
70406;SDS011;57821;52.202;0.154;2023-04-25T11:59:07;6.25;;;1.50;;
70406;SDS011;57821;52.202;0.154;2023-04-25T12:01:35;7.00;;;1.77;;
70406;SDS011;57821;52.202;0.154;2023-04-25T12:04:12;9.40;;;1.75;;
70406;SDS011;57821;52.202;0.154;2023-04-25T12:06:44;9.70;;;1.63;;
70406;SDS011;57821;52.202;0.154;2023-04-25T12:09:12;8.40;;;1.42;;
70406;SDS011;57821;52.202;0.154;2023-04-25T12:16:49;5.82;;;1.30;;
70406;SDS011;57821;52.202;0.154;2023-04-25T12:19:16;5.57;;;1.50;;
70406;SDS011;57821;52.202;0.154;2023-04-25T12:21:43;8.40;;;1.30;;
70406;SDS011;57821;52.202;0.154;2023-04-25T12:24:24;7.63;;;1.58;;
70406;SDS011;57821;52.202;0.154;2023-04-25T12:26:53;7.32;;;1.55;;
70406;SDS011;57821;52.202;0.154;2023-04-25T12:29:25;8.32;;;1.35;;
70406;SDS011;57821;52.202;0.154;2023-04-25T12:31:59;7.57;;;1.60;;
70406;SDS011;57821;52.202;0.154;2023-04-25T12:34:26;4.18;;;1.20;;
70406;SDS011;57821;52.202;0.154;2023-04-25T12:36:53;9.02;;;1.50;;
70406;SDS011;57821;52.202;0.154;2023-04-25T12:39:21;8.43;;;1.65;;
70406;SDS011;57821;52.202;0.154;2023-04-25T12:41:49;6.50;;;1.40;;
70406;SDS011;57821;52.202;0.154;2023-04-25T12:44:16;6.38;;;1.50;;
70406;SDS011;57821;52.202;0.154;2023-04-25T12:46:43;7.03;;;1.50;;
70406;SDS011;57821;52.202;0.154;2023-04-25T12:49:09;7.65;;;1.70;;
70406;SDS011;57821;52.202;0.154;2023-04-25T12:51:56;9.85;;;2.20;;
70406;SDS011;57821;52.202;0.154;2023-04-25T12:54:22;6.22;;;1.58;;
70406;SDS011;57821;52.202;0.154;2023-04-25T12:56:49;10.32;;;2.10;;
70406;SDS011;57821;52.202;0.154;2023-04-25T12:59:16;9.18;;;1.73;;
70406;SDS011;57821;52.202;0.154;2023-04-25T13:01:42;6.57;;;1.63;;
70406;SDS011;57821;52.202;0.154;2023-04-25T13:04:09;10.07;;;1.90;;
70406;SDS011;57821;52.202;0.154;2023-04-25T13:06:35;7.38;;;1.70;;
70406;SDS011;57821;52.202;0.154;2023-04-25T13:09:02;5.90;;;1.70;;
70406;SDS011;57821;52.202;0.154;2023-04-25T13:11:29;11.50;;;2.05;;
70406;SDS011;57821;52.202;0.154;2023-04-25T13:16:26;9.77;;;1.60;;
70406;SDS011;57821;52.202;0.154;2023-04-25T13:18:53;6.78;;;1.65;;
70406;SDS011;57821;52.202;0.154;2023-04-25T13:21:19;9.18;;;2.03;;
70406;SDS011;57821;52.202;0.154;2023-04-25T13:23:46;8.77;;;1.95;;
70406;SDS011;57821;52.202;0.154;2023-04-25T13:26:13;7.97;;;1.55;;
70406;SDS011;57821;52.202;0.154;2023-04-25T13:28:39;7.13;;;1.80;;
70406;SDS011;57821;52.202;0.154;2023-04-25T13:31:07;6.65;;;2.20;;
70406;SDS011;57821;52.202;0.154;2023-04-25T13:33:34;8.27;;;1.65;;
70406;SDS011;57821;52.202;0.154;2023-04-25T13:36:00;8.38;;;2.08;;
70406;SDS011;57821;52.202;0.154;2023-04-25T13:38:27;9.45;;;1.90;;
70406;SDS011;57821;52.202;0.154;2023-04-25T13:40:54;7.82;;;1.95;;
70406;SDS011;57821;52.202;0.154;2023-04-25T13:43:21;6.28;;;1.92;;
70406;SDS011;57821;52.202;0.154;2023-04-25T13:45:51;7.20;;;2.25;;
70406;SDS011;57821;52.202;0.154;2023-04-25T13:48:18;5.30;;;1.77;;
70406;SDS011;57821;52.202;0.154;2023-04-25T13:50:45;8.30;;;2.22;;
70406;SDS011;57821;52.202;0.154;2023-04-25T13:53:12;8.32;;;2.10;;
70406;SDS011;57821;52.202;0.154;2023-04-25T13:55:38;6.65;;;1.92;;
70406;SDS011;57821;52.202;0.154;2023-04-25T13:58:05;6.72;;;1.80;;
70406;SDS011;57821;52.202;0.154;2023-04-25T14:00:31;7.53;;;1.50;;
70406;SDS011;57821;52.202;0.154;2023-04-25T14:02:58;8.02;;;1.90;;
70406;SDS011;57821;52.202;0.154;2023-04-25T14:05:24;9.82;;;1.98;;
70406;SDS011;57821;52.202;0.154;2023-04-25T14:07:51;7.72;;;2.00;;
70406;SDS011;57821;52.202;0.154;2023-04-25T14:10:17;11.63;;;2.00;;
70406;SDS011;57821;52.202;0.154;2023-04-25T14:12:44;5.95;;;2.10;;
70406;SDS011;57821;52.202;0.154;2023-04-25T14:15:10;9.68;;;2.15;;
70406;SDS011;57821;52.202;0.154;2023-04-25T14:17:37;9.80;;;2.10;;
70406;SDS011;57821;52.202;0.154;2023-04-25T14:20:04;8.20;;;1.40;;
70406;SDS011;57821;52.202;0.154;2023-04-25T14:22:31;7.78;;;1.67;;
70406;SDS011;57821;52.202;0.154;2023-04-25T14:24:57;6.57;;;2.00;;
70406;SDS011;57821;52.202;0.154;2023-04-25T14:27:24;6.35;;;2.00;;
70406;SDS011;57821;52.202;0.154;2023-04-25T14:29:53;9.20;;;2.00;;
70406;SDS011;57821;52.202;0.154;2023-04-25T14:32:20;8.32;;;2.00;;
70406;SDS011;57821;52.202;0.154;2023-04-25T14:34:46;8.68;;;2.20;;
70406;SDS011;57821;52.202;0.154;2023-04-25T14:37:13;6.40;;;1.90;;
70406;SDS011;57821;52.202;0.154;2023-04-25T14:39:39;7.43;;;2.05;;
70406;SDS011;57821;52.202;0.154;2023-04-25T14:42:06;9.50;;;2.40;;
70406;SDS011;57821;52.202;0.154;2023-04-25T14:44:32;7.13;;;2.00;;
70406;SDS011;57821;52.202;0.154;2023-04-25T14:46:59;8.38;;;2.17;;
70406;SDS011;57821;52.202;0.154;2023-04-25T14:49:25;9.93;;;2.45;;
70406;SDS011;57821;52.202;0.154;2023-04-25T14:51:52;8.05;;;2.30;;
70406;SDS011;57821;52.202;0.154;2023-04-25T14:54:18;7.35;;;1.88;;
70406;SDS011;57821;52.202;0.154;2023-04-25T14:56:45;6.20;;;1.90;;
70406;SDS011;57821;52.202;0.154;2023-04-25T14:59:11;12.82;;;2.17;;
70406;SDS011;57821;52.202;0.154;2023-04-25T15:01:38;8.50;;;2.20;;
70406;SDS011;57821;52.202;0.154;2023-04-25T15:04:04;4.78;;;1.80;;
70406;SDS011;57821;52.202;0.154;2023-04-25T15:06:31;7.82;;;1.80;;
70406;SDS011;57821;52.202;0.154;2023-04-25T15:08:58;7.13;;;2.00;;
70406;SDS011;57821;52.202;0.154;2023-04-25T15:11:24;5.28;;;1.85;;
70406;SDS011;57821;52.202;0.154;2023-04-25T15:13:51;9.27;;;2.38;;
70406;SDS011;57821;52.202;0.154;2023-04-25T15:16:18;9.93;;;2.10;;
70406;SDS011;57821;52.202;0.154;2023-04-25T15:18:45;7.50;;;1.92;;
70406;SDS011;57821;52.202;0.154;2023-04-25T15:21:11;8.70;;;1.80;;
70406;SDS011;57821;52.202;0.154;2023-04-25T15:23:38;10.88;;;2.05;;